메인 페이지
METAR-TAF:

METAR-TAF

공항 :

Resolute, 누나부트, 캐나다

위도: 74-43N, 경도: 094-59W, 고도: 67m

현재 날씨관측

예보는 47분 전, 09:00시(UTC)에 발표되었습니다.
북북동12kt
온도 -16°C
습도 84%
기압 1004 hPa
시정: 24.1km
고도 2500ft 상공 구름 많음
빙정

METAR: CYRB 150900Z 02012KT 15SM IC BKN025 M16/M18 A2965 RMK SC5 SLP052

시각: 04:47 (09:47 UTC)

예보

예보는 4 시간 9분 전, 05:38시(UTC)에 발표되었습니다.
예보 대상 시간: 15일 06시부터 16일 06시까지 (UTC)
북북동13kt
시정: 10km
고도 5000ft 상공 구름 보통
빙정
일시적
15일 06시부터 15일 14시까지 (UTC)
시정: 10km
고도 3000ft 상공 구름 많음
약한눈
15일 1400시부터 (UTC)
10kt
시정: 10km
고도 3000ft 상공 구름 보통
일시적
15일 14시부터 15일 22시까지 (UTC)
시정: 10km
고도 2000ft 상공 구름 많음
약한눈
15일 2200시부터 (UTC)
8kt
시정: 10km
고도 3000ft 상공 구름 많음
일시적
15일 22시부터 16일 06시까지 (UTC)
시정: 10km
고도 2000ft 상공 흐림
약한눈

TAF: CYRB 150538Z 1506/1606 02013KT P6SM IC SCT050 TEMPO 1506/1514 P6SM -SN BKN030 FM151400 01010KT P6SM SCT030 TEMPO 1514/1522 P6SM -SN BKN020 FM152200 36008KT P6SM BKN030 TEMPO 1522/1606 P6SM -SN OVC020 RMK NXT FCST BY 151200Z

4,000개 이상의 공항 관측 자료 및 예보 (METAR 및 TAF 보고).

지도상에서 검색 가능한 기상관측소가 노란 점과 빨간 점으로 표시되어 있습니다.

기상관측소 명을 보려면 표시 위로 마우스를 이동하세요.

날씨 관측과 예보를 보려면 클릭하세요.

지도 변경 : 확대하려면 엑스 표시가 있는 녹색 버튼, 축소하려면 빼기 표시가 있는 녹색 버튼, 다음 페이지의 지도를 보려면 녹색 화살표를 클릭하세요.


METAR-TAF: